createdAt,value
2019-06-26T00:00:19.250Z,98.00
2019-06-26T00:02:48.845Z,98.30
2019-06-26T00:05:18.469Z,98.50
2019-06-26T00:07:48.129Z,99.00
2019-06-26T00:10:18.045Z,99.10
2019-06-26T00:12:47.592Z,99.20
2019-06-26T00:15:17.486Z,99.40
2019-06-26T00:17:47.184Z,99.40
2019-06-26T00:20:17.238Z,99.10
2019-06-26T00:22:46.963Z,99.20
2019-06-26T00:25:16.694Z,99.20
2019-06-26T00:27:46.533Z,99.10
2019-06-26T00:30:18.532Z,98.70
2019-06-26T00:32:48.146Z,98.70
2019-06-26T00:35:17.685Z,98.80
2019-06-26T00:37:47.495Z,98.00
2019-06-26T00:40:17.405Z,98.00
2019-06-26T00:42:47.251Z,97.80
2019-06-26T00:45:17.034Z,97.50
2019-06-26T00:47:46.744Z,97.30
2019-06-26T00:50:16.602Z,97.10
2019-06-26T00:52:46.168Z,97.20
2019-06-26T00:55:16.243Z,97.30
2019-06-26T00:57:45.916Z,97.60
2019-06-26T01:00:16.873Z,97.90
2019-06-26T01:02:46.470Z,98.40
2019-06-26T01:05:16.774Z,99.60
2019-06-26T01:07:46.429Z,99.90
2019-06-26T01:10:16.710Z,99.90
2019-06-26T01:12:46.667Z,99.60
2019-06-26T01:15:16.651Z,99.90
2019-06-26T01:17:46.248Z,99.90
2019-06-26T01:20:16.558Z,99.90
2019-06-26T01:22:46.276Z,99.90
2019-06-26T01:25:16.423Z,99.90
2019-06-26T01:27:46.077Z,99.90
2019-06-26T01:30:16.388Z,99.90
2019-06-26T01:32:46.415Z,99.80
2019-06-26T01:35:15.997Z,99.80
2019-06-26T01:37:45.652Z,99.90
2019-06-26T01:40:15.947Z,99.90
2019-06-26T01:42:45.503Z,99.90
2019-06-26T01:45:15.844Z,99.90
2019-06-26T01:47:46.049Z,99.90
2019-06-26T01:50:15.909Z,99.90
2019-06-26T01:52:45.888Z,99.90
2019-06-26T01:55:15.464Z,99.90
2019-06-26T01:57:45.035Z,99.90
2019-06-26T02:00:17.020Z,99.90
2019-06-26T02:02:46.568Z,99.90
2019-06-26T02:05:16.560Z,99.90
2019-06-26T02:07:46.545Z,99.90
2019-06-26T02:10:16.638Z,99.90
2019-06-26T02:12:46.135Z,99.90
2019-06-26T02:15:16.235Z,99.90
2019-06-26T02:17:45.824Z,99.90
2019-06-26T02:20:16.251Z,99.90
2019-06-26T02:22:49.337Z,99.90
2019-06-26T02:25:17.964Z,99.90
2019-06-26T02:27:47.828Z,99.90
2019-06-26T02:30:18.712Z,99.90
2019-06-26T02:32:48.355Z,99.90
2019-06-26T02:35:18.779Z,99.90
2019-06-26T02:37:48.781Z,99.90
2019-06-26T02:40:19.419Z,99.90
2019-06-26T02:42:49.236Z,99.90
2019-06-26T02:45:19.811Z,99.90
2019-06-26T02:47:49.389Z,99.90
2019-06-26T02:50:19.160Z,99.90
2019-06-26T02:52:48.729Z,99.90
2019-06-26T02:55:18.376Z,99.90
2019-06-26T02:57:48.002Z,99.90
2019-06-26T03:00:17.989Z,99.90
2019-06-26T03:02:47.775Z,99.90
2019-06-26T03:05:17.437Z,99.90
2019-06-26T03:07:46.974Z,99.90
2019-06-26T03:10:17.079Z,99.90
2019-06-26T03:12:47.192Z,99.90
2019-06-26T03:15:18.799Z,99.90
2019-06-26T03:17:55.324Z,99.90
2019-06-26T03:20:24.260Z,99.90
2019-06-26T03:22:53.921Z,99.90
2019-06-26T03:25:23.425Z,99.90
2019-06-26T03:27:53.396Z,99.90
2019-06-26T03:30:23.467Z,99.90
2019-06-26T03:32:53.132Z,99.90
2019-06-26T03:35:23.035Z,99.90
2019-06-26T03:37:52.643Z,99.90
2019-06-26T03:40:22.254Z,99.90
2019-06-26T03:42:52.143Z,99.90
2019-06-26T03:45:26.128Z,99.90
2019-06-26T03:47:53.738Z,99.90
2019-06-26T03:50:23.396Z,99.90
2019-06-26T03:52:53.408Z,99.90
2019-06-26T03:55:23.265Z,99.90
2019-06-26T03:57:53.065Z,99.90
2019-06-26T04:00:36.088Z,99.90
2019-06-26T04:03:06.470Z,99.90
2019-06-26T04:05:36.778Z,99.90
2019-06-26T04:08:06.847Z,99.90
2019-06-26T04:10:37.728Z,99.90
2019-06-26T04:13:07.609Z,99.90
2019-06-26T04:15:41.965Z,99.90
2019-06-26T04:18:08.930Z,99.90
2019-06-26T04:20:38.799Z,99.90
2019-06-26T04:23:08.499Z,99.90
2019-06-26T04:25:38.562Z,99.90
2019-06-26T04:28:08.251Z,99.90
2019-06-26T04:30:38.072Z,99.90
2019-06-26T04:33:07.943Z,99.90
2019-06-26T04:35:37.549Z,99.90
2019-06-26T04:38:07.135Z,99.90
2019-06-26T04:40:37.305Z,99.90
2019-06-26T04:43:06.922Z,99.90
2019-06-26T04:45:36.505Z,99.90
2019-06-26T04:48:07.414Z,99.90
2019-06-26T04:50:37.335Z,99.90
2019-06-26T04:53:07.308Z,99.90
2019-06-26T04:55:36.880Z,99.90
2019-06-26T04:58:06.628Z,99.90
2019-06-26T05:00:36.272Z,99.90
2019-06-26T05:03:06.649Z,99.90
2019-06-26T05:05:39.844Z,99.90
2019-06-26T05:08:07.816Z,99.90
2019-06-26T05:10:37.746Z,99.90
2019-06-26T05:13:07.300Z,99.90
2019-06-26T05:15:36.852Z,99.90
2019-06-26T05:18:06.787Z,99.90
2019-06-26T05:20:36.582Z,99.90
2019-06-26T05:23:06.204Z,99.90
2019-06-26T05:25:35.916Z,99.90
2019-06-26T05:28:08.198Z,99.90
2019-06-26T05:30:37.145Z,99.90
2019-06-26T05:33:06.878Z,99.90
2019-06-26T05:35:36.434Z,99.90
2019-06-26T05:38:06.304Z,99.90
2019-06-26T05:40:36.092Z,99.90
2019-06-26T05:43:05.900Z,99.90
2019-06-26T05:45:35.512Z,99.90
2019-06-26T05:48:05.334Z,99.90
2019-06-26T05:50:35.291Z,99.90
2019-06-26T05:53:04.899Z,99.90
2019-06-26T05:55:34.785Z,99.90
2019-06-26T05:58:04.796Z,99.90
2019-06-26T06:00:34.804Z,99.90
2019-06-26T06:03:04.405Z,99.90
2019-06-26T06:05:34.072Z,99.90
2019-06-26T06:08:03.823Z,99.90
2019-06-26T06:10:33.374Z,99.90
2019-06-26T06:13:02.995Z,99.90
2019-06-26T06:15:32.744Z,99.90
2019-06-26T06:18:02.454Z,99.90
2019-06-26T06:20:41.451Z,99.90
2019-06-26T06:23:12.345Z,99.90
2019-06-26T06:25:42.006Z,99.90
2019-06-26T06:28:11.791Z,99.90
2019-06-26T06:30:41.521Z,99.90
2019-06-26T06:33:11.086Z,99.90
2019-06-26T06:35:40.638Z,99.90
2019-06-26T06:38:10.614Z,99.90
2019-06-26T06:40:40.496Z,99.90
2019-06-26T06:43:10.050Z,99.90
2019-06-26T06:45:39.608Z,99.90
2019-06-26T06:48:09.894Z,99.90
2019-06-26T06:50:39.459Z,99.90
2019-06-26T06:53:09.012Z,99.90
2019-06-26T06:55:38.936Z,99.90
2019-06-26T06:58:09.051Z,99.90
2019-06-26T07:00:38.972Z,99.90
2019-06-26T07:03:08.530Z,99.90
2019-06-26T07:05:38.392Z,99.90
2019-06-26T07:08:08.281Z,99.90
2019-06-26T07:10:37.943Z,99.90
2019-06-26T07:13:07.589Z,99.90
2019-06-26T07:15:37.474Z,99.90
2019-06-26T07:18:07.116Z,99.90
2019-06-26T07:20:36.848Z,99.90
2019-06-26T07:23:06.963Z,99.90
2019-06-26T07:25:36.515Z,99.90
2019-06-26T07:28:06.424Z,99.90
2019-06-26T07:30:36.010Z,99.90
2019-06-26T07:33:05.947Z,99.90
2019-06-26T07:35:35.701Z,99.90
2019-06-26T07:38:06.486Z,99.90
2019-06-26T07:40:36.257Z,99.90
2019-06-26T07:43:06.187Z,99.90
2019-06-26T07:45:35.975Z,99.90
2019-06-26T07:48:05.661Z,99.90
2019-06-26T07:50:35.455Z,99.90
2019-06-26T07:53:05.548Z,99.90
2019-06-26T07:55:40.292Z,99.90
2019-06-26T07:58:07.764Z,99.90
2019-06-26T08:00:37.641Z,99.90
2019-06-26T08:03:07.472Z,99.90
2019-06-26T08:05:37.071Z,99.90
2019-06-26T08:08:06.856Z,99.90
2019-06-26T08:10:36.423Z,99.90
2019-06-26T08:13:06.351Z,99.90
2019-06-26T08:15:35.900Z,99.90
2019-06-26T08:18:06.523Z,99.90
2019-06-26T08:20:51.586Z,99.90
2019-06-26T08:23:07.856Z,99.90
2019-06-26T08:25:37.672Z,99.90
2019-06-26T08:28:07.275Z,99.90
2019-06-26T08:30:37.108Z,99.90
2019-06-26T08:33:07.054Z,99.90
2019-06-26T08:35:36.764Z,99.90
2019-06-26T08:38:12.590Z,99.90
2019-06-26T08:40:37.978Z,99.90
2019-06-26T08:43:07.613Z,99.90
2019-06-26T08:45:37.296Z,99.90
2019-06-26T08:48:19.066Z,99.90
2019-06-26T08:50:38.244Z,99.90
2019-06-26T08:53:07.871Z,99.90
2019-06-26T08:55:37.481Z,99.90
2019-06-26T08:58:07.209Z,99.90
2019-06-26T09:00:36.872Z,99.90
2019-06-26T09:03:06.828Z,99.90
2019-06-26T09:05:47.411Z,99.90
2019-06-26T09:08:07.963Z,99.90
2019-06-26T09:10:37.606Z,99.90
2019-06-26T09:13:07.475Z,99.90
2019-06-26T09:15:37.044Z,99.90
2019-06-26T09:18:06.762Z,99.90
2019-06-26T09:20:41.383Z,99.90
2019-06-26T09:23:10.993Z,99.90
2019-06-26T09:25:40.761Z,99.90
2019-06-26T09:28:10.408Z,99.90
2019-06-26T09:30:39.979Z,99.90
2019-06-26T09:33:09.843Z,99.90
2019-06-26T09:35:39.397Z,99.90
2019-06-26T09:38:09.049Z,99.50
2019-06-26T09:40:38.763Z,99.50
2019-06-26T09:43:08.335Z,98.30
2019-06-26T09:45:38.214Z,98.90
2019-06-26T09:48:08.113Z,99.10
2019-06-26T09:50:37.668Z,98.70
2019-06-26T09:53:07.757Z,98.20
2019-06-26T09:55:37.315Z,98.00
2019-06-26T09:58:06.873Z,97.80
2019-06-26T10:00:36.732Z,97.40
2019-06-26T10:03:06.813Z,96.40
2019-06-26T10:05:36.711Z,95.70
2019-06-26T10:08:06.606Z,95.20
2019-06-26T10:10:36.200Z,94.90
2019-06-26T10:13:06.003Z,94.50
2019-06-26T10:15:35.582Z,94.10
2019-06-26T10:18:05.347Z,92.50
2019-06-26T10:20:35.918Z,92.90
2019-06-26T10:23:05.473Z,93.20
2019-06-26T10:25:35.383Z,92.60
2019-06-26T10:28:05.643Z,92.00
2019-06-26T10:30:35.287Z,91.90
2019-06-26T10:33:04.914Z,91.40
2019-06-26T10:35:34.573Z,91.10
2019-06-26T10:38:04.121Z,90.90
2019-06-26T10:40:34.002Z,90.80
2019-06-26T10:43:03.752Z,91.70
2019-06-26T10:45:36.061Z,92.40
2019-06-26T10:48:05.743Z,92.50
2019-06-26T10:50:47.474Z,92.90
2019-06-26T10:53:06.612Z,92.80
2019-06-26T10:55:36.622Z,92.20
2019-06-26T10:58:06.206Z,91.40
2019-06-26T11:00:36.170Z,90.80
2019-06-26T11:03:06.272Z,89.10
2019-06-26T11:05:35.823Z,90.30
2019-06-26T11:08:05.834Z,90.60
2019-06-26T11:10:35.389Z,91.10
2019-06-26T11:13:05.643Z,90.70
2019-06-26T11:15:35.230Z,90.90
2019-06-26T11:18:05.074Z,91.80
2019-06-26T11:20:34.665Z,91.80
2019-06-26T11:23:04.600Z,91.70
2019-06-26T11:25:34.520Z,91.80
2019-06-26T11:28:05.506Z,91.80
2019-06-26T11:30:35.370Z,91.70
2019-06-26T11:33:05.289Z,91.40
2019-06-26T11:35:34.815Z,91.80
2019-06-26T11:38:04.691Z,91.30
2019-06-26T11:40:34.896Z,91.30
2019-06-26T11:43:04.735Z,91.30
2019-06-26T11:45:34.310Z,90.70
2019-06-26T11:48:04.143Z,90.70
2019-06-26T11:50:34.292Z,91.40
2019-06-26T11:53:04.168Z,91.30
2019-06-26T11:55:35.324Z,90.70
2019-06-26T11:58:06.033Z,90.00
2019-06-26T12:00:35.658Z,90.20
2019-06-26T12:03:06.278Z,90.10
2019-06-26T12:05:35.832Z,89.50
2019-06-26T12:08:05.788Z,86.70
2019-06-26T12:10:35.418Z,88.30
2019-06-26T12:13:04.971Z,89.50
2019-06-26T12:15:34.699Z,90.00
2019-06-26T12:18:04.404Z,90.00
2019-06-26T12:20:34.257Z,89.10
2019-06-26T12:23:03.972Z,90.10
2019-06-26T12:25:34.078Z,90.20
2019-06-26T12:28:03.642Z,90.40
2019-06-26T12:30:33.470Z,90.70
2019-06-26T12:33:03.946Z,90.30
2019-06-26T12:35:33.810Z,90.80
2019-06-26T12:38:03.375Z,91.20
2019-06-26T12:40:33.049Z,91.10
2019-06-26T12:43:02.833Z,90.50
2019-06-26T12:45:32.527Z,90.40
2019-06-26T12:48:02.340Z,90.60
2019-06-26T12:50:35.832Z,90.60
2019-06-26T12:53:03.524Z,90.60
2019-06-26T12:55:33.306Z,90.30
2019-06-26T12:58:13.670Z,90.00
2019-06-26T13:00:34.734Z,90.20
2019-06-26T13:03:05.048Z,90.40
2019-06-26T13:05:34.590Z,90.60
2019-06-26T13:08:04.391Z,90.60
2019-06-26T13:10:48.421Z,90.90
2019-06-26T13:13:05.462Z,90.40
2019-06-26T13:15:35.200Z,90.00
2019-06-26T13:18:04.752Z,90.30
2019-06-26T13:20:48.216Z,90.00
2019-06-26T13:23:06.185Z,90.40
2019-06-26T13:25:35.867Z,90.00
2019-06-26T13:28:05.541Z,90.60
2019-06-26T13:30:39.629Z,90.70
2019-06-26T13:33:09.189Z,90.60
2019-06-26T13:35:38.897Z,89.90
2019-06-26T13:38:08.796Z,90.40
2019-06-26T13:40:40.970Z,90.50
2019-06-26T13:43:10.035Z,91.50
2019-06-26T13:45:39.542Z,91.80
2019-06-26T13:48:09.239Z,91.50
2019-06-26T13:50:39.149Z,92.00
2019-06-26T13:53:08.918Z,90.50
2019-06-26T13:55:38.668Z,89.60
2019-06-26T13:58:08.563Z,90.10
2019-06-26T14:00:38.165Z,89.30
2019-06-26T14:03:08.256Z,89.70
2019-06-26T14:05:37.908Z,90.30
2019-06-26T14:08:07.514Z,91.10
2019-06-26T14:10:37.179Z,90.70
2019-06-26T14:13:06.812Z,91.10
2019-06-26T14:15:36.599Z,91.90
2019-06-26T14:18:06.865Z,91.70
2019-06-26T14:20:36.466Z,91.80
2019-06-26T14:23:06.336Z,91.90
2019-06-26T14:25:37.972Z,91.60
2019-06-26T14:28:07.585Z,91.70
2019-06-26T14:30:37.137Z,91.50
2019-06-26T14:33:07.439Z,91.50
2019-06-26T14:35:37.350Z,91.10
2019-06-26T14:38:06.904Z,91.50
2019-06-26T14:40:37.038Z,92.10
2019-06-26T14:43:06.634Z,92.20
2019-06-26T14:45:36.382Z,91.70
2019-06-26T14:48:06.095Z,91.70
2019-06-26T14:50:35.781Z,91.90
2019-06-26T14:53:05.538Z,92.70
2019-06-26T14:55:35.249Z,92.50
2019-06-26T14:58:05.136Z,91.70
2019-06-26T15:00:34.886Z,91.50
2019-06-26T15:03:05.568Z,91.80
2019-06-26T15:05:35.357Z,91.70
2019-06-26T15:08:04.932Z,91.90
2019-06-26T15:10:34.518Z,92.30
2019-06-26T15:13:04.226Z,92.40
2019-06-26T15:15:33.790Z,92.00
2019-06-26T15:18:03.612Z,91.70
2019-06-26T15:20:33.326Z,91.80
2019-06-26T15:23:02.890Z,91.90
2019-06-26T15:25:32.637Z,92.00
2019-06-26T15:28:02.294Z,91.90
2019-06-26T15:30:31.954Z,92.30
2019-06-26T15:33:01.903Z,92.40
2019-06-26T15:35:31.498Z,92.20
2019-06-26T15:38:01.074Z,92.20
2019-06-26T15:40:30.989Z,92.40
2019-06-26T15:43:00.543Z,92.30
2019-06-26T15:45:30.157Z,92.60
2019-06-26T15:47:59.711Z,92.70
2019-06-26T15:50:29.354Z,92.60
2019-06-26T15:52:58.912Z,93.00
2019-06-26T15:55:29.137Z,92.30
2019-06-26T15:57:58.969Z,92.30
2019-06-26T16:00:28.694Z,92.40
2019-06-26T16:02:58.242Z,92.30
2019-06-26T16:05:27.870Z,92.40
2019-06-26T16:07:57.784Z,92.30
2019-06-26T16:10:27.328Z,92.40
2019-06-26T16:12:56.878Z,92.30
2019-06-26T16:15:27.991Z,92.70
2019-06-26T16:18:08.013Z,92.70
2019-06-26T16:20:37.789Z,92.80
2019-06-26T16:23:07.581Z,93.00
2019-06-26T16:25:37.291Z,93.10
2019-06-26T16:28:06.850Z,93.10
2019-06-26T16:30:36.427Z,93.40
2019-06-26T16:33:06.089Z,93.50
2019-06-26T16:35:35.633Z,93.60
2019-06-26T16:38:05.245Z,93.20
2019-06-26T16:40:35.051Z,93.10
2019-06-26T16:43:04.989Z,93.40
2019-06-26T16:45:34.778Z,93.40
2019-06-26T16:48:04.688Z,93.60
2019-06-26T16:50:33.447Z,93.50
2019-06-26T16:53:02.232Z,93.30
2019-06-26T16:55:31.838Z,93.40
2019-06-26T16:58:01.435Z,93.30
2019-06-26T17:00:31.230Z,93.20
2019-06-26T17:03:00.919Z,93.40
2019-06-26T17:05:30.997Z,93.50
2019-06-26T17:08:00.639Z,93.80
2019-06-26T17:10:30.167Z,93.70
2019-06-26T17:12:59.825Z,94.00
2019-06-26T17:15:29.976Z,94.40
2019-06-26T17:17:59.647Z,94.40
2019-06-26T17:20:29.322Z,94.90
2019-06-26T17:23:05.771Z,95.00
2019-06-26T17:25:31.650Z,95.40
2019-06-26T17:28:01.227Z,95.80
2019-06-26T17:30:30.871Z,96.00
2019-06-26T17:33:01.085Z,95.90
2019-06-26T17:35:30.866Z,96.10
2019-06-26T17:38:01.647Z,96.40
2019-06-26T17:40:31.181Z,96.50
2019-06-26T17:43:11.952Z,96.60
2019-06-26T17:45:32.383Z,96.40
2019-06-26T17:48:01.967Z,96.40
2019-06-26T17:50:31.602Z,96.40
2019-06-26T17:53:01.732Z,96.40
2019-06-26T17:55:31.363Z,96.20
2019-06-26T17:58:01.158Z,96.30
2019-06-26T18:00:36.851Z,96.20
2019-06-26T18:03:06.772Z,96.10
2019-06-26T18:05:36.424Z,96.40
2019-06-26T18:08:06.135Z,96.20
2019-06-26T18:10:35.684Z,96.40
2019-06-26T18:13:05.636Z,96.60
2019-06-26T18:15:34.394Z,96.70
2019-06-26T18:18:04.117Z,96.90
2019-06-26T18:20:34.764Z,96.90
2019-06-26T18:23:07.597Z,97.00
2019-06-26T18:25:36.152Z,96.80
2019-06-26T18:28:05.188Z,96.80
2019-06-26T18:30:34.779Z,97.00
2019-06-26T18:33:04.489Z,97.00
2019-06-26T18:35:34.201Z,97.10
2019-06-26T18:38:04.038Z,96.90
2019-06-26T18:40:33.865Z,96.80
2019-06-26T18:43:03.832Z,96.90
2019-06-26T18:45:33.868Z,96.60
2019-06-26T18:48:03.920Z,96.70
2019-06-26T18:50:33.598Z,96.10
2019-06-26T18:53:03.532Z,96.60
2019-06-26T18:55:33.103Z,96.40
2019-06-26T18:58:03.157Z,96.60
2019-06-26T19:00:32.709Z,96.40
2019-06-26T19:03:03.285Z,96.50
2019-06-26T19:05:32.861Z,96.10
2019-06-26T19:08:02.421Z,96.00
2019-06-26T19:10:32.032Z,96.30
2019-06-26T19:13:02.095Z,96.10
2019-06-26T19:15:31.680Z,96.30
2019-06-26T19:18:02.466Z,96.70
2019-06-26T19:20:33.933Z,96.80
2019-06-26T19:23:03.552Z,96.70
2019-06-26T19:25:33.629Z,96.90
2019-06-26T19:28:03.172Z,97.00
2019-06-26T19:30:32.835Z,96.90
2019-06-26T19:33:03.414Z,97.10
2019-06-26T19:35:33.083Z,96.90
2019-06-26T19:38:02.649Z,97.10
2019-06-26T19:40:32.502Z,97.60
2019-06-26T19:43:02.142Z,97.40
2019-06-26T19:45:32.138Z,97.80
2019-06-26T19:48:02.061Z,97.50
2019-06-26T19:50:31.941Z,97.40
2019-06-26T19:53:01.511Z,97.70
2019-06-26T19:55:31.178Z,97.90
2019-06-26T19:58:00.753Z,98.10
2019-06-26T20:00:30.579Z,98.00
2019-06-26T20:03:00.150Z,98.30
2019-06-26T20:05:29.753Z,98.10
2019-06-26T20:07:59.447Z,97.70
2019-06-26T20:10:29.406Z,97.60
2019-06-26T20:12:58.986Z,98.10
2019-06-26T20:15:27.819Z,97.80
2019-06-26T20:17:56.589Z,97.90
2019-06-26T20:20:25.402Z,97.80
2019-06-26T20:22:54.266Z,97.50
2019-06-26T20:25:23.030Z,97.70
2019-06-26T20:27:56.883Z,97.80
2019-06-26T20:30:25.698Z,97.80
2019-06-26T20:32:54.576Z,97.80
2019-06-26T20:35:23.549Z,97.80
2019-06-26T20:37:52.429Z,97.90
2019-06-26T20:40:22.087Z,97.70
2019-06-26T20:42:51.650Z,97.70
2019-06-26T20:45:21.645Z,98.20
2019-06-26T20:47:51.216Z,98.50
2019-06-26T20:50:21.116Z,98.90
2019-06-26T20:52:50.744Z,98.80
2019-06-26T20:55:20.429Z,98.90
2019-06-26T20:57:49.986Z,99.00
2019-06-26T21:00:22.458Z,99.00
2019-06-26T21:02:54.160Z,99.00
2019-06-26T21:05:23.001Z,99.40
2019-06-26T21:07:52.552Z,99.10
2019-06-26T21:10:23.279Z,99.60
2019-06-26T21:12:52.858Z,99.80
2019-06-26T21:15:22.527Z,99.70
2019-06-26T21:17:52.095Z,99.70
2019-06-26T21:20:21.702Z,99.60
2019-06-26T21:22:51.818Z,99.60
2019-06-26T21:25:21.376Z,99.60
2019-06-26T21:27:50.924Z,99.90
2019-06-26T21:30:21.395Z,99.80
2019-06-26T21:32:51.021Z,99.80
2019-06-26T21:35:20.568Z,99.90
2019-06-26T21:37:50.271Z,99.90
2019-06-26T21:40:20.004Z,99.90
2019-06-26T21:42:49.669Z,99.90
2019-06-26T21:45:23.289Z,99.90
2019-06-26T21:47:52.909Z,99.90
2019-06-26T21:50:22.592Z,99.90
2019-06-26T21:52:52.188Z,99.90
2019-06-26T21:55:33.772Z,99.90
2019-06-26T21:57:53.224Z,99.90
2019-06-26T22:00:23.517Z,99.90
2019-06-26T22:02:53.149Z,99.90
2019-06-26T22:05:23.205Z,99.90
2019-06-26T22:07:52.788Z,99.90
2019-06-26T22:10:23.610Z,99.90
2019-06-26T22:12:53.313Z,99.90
2019-06-26T22:15:22.871Z,99.90
2019-06-26T22:17:53.395Z,99.90
2019-06-26T22:20:23.868Z,99.90
2019-06-26T22:22:53.616Z,99.90
2019-06-26T22:25:23.311Z,99.90
2019-06-26T22:27:52.856Z,99.90
2019-06-26T22:30:23.317Z,99.90
2019-06-26T22:32:52.941Z,99.90
2019-06-26T22:35:22.546Z,99.90
2019-06-26T22:37:52.234Z,99.90
2019-06-26T22:40:21.796Z,99.90
2019-06-26T22:42:51.618Z,99.90
2019-06-26T22:45:21.456Z,99.90
2019-06-26T22:47:51.280Z,99.90
2019-06-26T22:50:22.290Z,99.90
2019-06-26T22:52:52.063Z,99.90
2019-06-26T22:55:21.886Z,99.90
2019-06-26T22:57:51.432Z,99.90
2019-06-26T23:00:21.786Z,99.90
2019-06-26T23:02:51.434Z,99.90
2019-06-26T23:05:21.025Z,99.90
2019-06-26T23:07:51.199Z,99.90
2019-06-26T23:10:20.287Z,99.90
2019-06-26T23:12:49.189Z,99.90
2019-06-26T23:15:18.166Z,99.90
2019-06-26T23:17:48.005Z,99.90
2019-06-26T23:20:17.996Z,99.90
2019-06-26T23:22:47.539Z,99.90
2019-06-26T23:25:17.228Z,99.90
2019-06-26T23:27:46.965Z,99.90
2019-06-26T23:30:20.597Z,99.90
2019-06-26T23:32:51.563Z,99.90
2019-06-26T23:35:21.192Z,99.90
2019-06-26T23:37:50.762Z,99.90
2019-06-26T23:40:20.951Z,99.90
2019-06-26T23:42:50.549Z,99.90
2019-06-26T23:45:20.212Z,99.90
2019-06-26T23:47:49.809Z,99.90
2019-06-26T23:50:19.494Z,99.90
2019-06-26T23:52:49.510Z,99.90
2019-06-26T23:55:19.398Z,99.90
2019-06-26T23:57:59.084Z,99.90
